sensor_id;sensor_type;location;lat;lon;timestamp;P1;durP1;ratioP1;P2;durP2;ratioP2
62332;SDS011;48624;49.812;8.562;2023-04-08T00:00:44;296.80;;;286.85;;
62332;SDS011;48624;49.812;8.562;2023-04-08T00:03:10;297.65;;;287.58;;
62332;SDS011;48624;49.812;8.562;2023-04-08T00:05:35;291.75;;;281.73;;
62332;SDS011;48624;49.812;8.562;2023-04-08T00:08:01;289.58;;;279.50;;
62332;SDS011;48624;49.812;8.562;2023-04-08T00:10:26;287.80;;;277.80;;
62332;SDS011;48624;49.812;8.562;2023-04-08T00:12:51;286.50;;;276.52;;
62332;SDS011;48624;49.812;8.562;2023-04-08T00:15:16;279.35;;;269.75;;
62332;SDS011;48624;49.812;8.562;2023-04-08T00:17:42;294.27;;;284.08;;
62332;SDS011;48624;49.812;8.562;2023-04-08T00:20:07;291.63;;;281.52;;
62332;SDS011;48624;49.812;8.562;2023-04-08T00:22:34;299.02;;;288.73;;
62332;SDS011;48624;49.812;8.562;2023-04-08T00:25:00;291.10;;;281.00;;
62332;SDS011;48624;49.812;8.562;2023-04-08T00:27:26;287.67;;;277.83;;
62332;SDS011;48624;49.812;8.562;2023-04-08T00:29:52;288.90;;;278.77;;
62332;SDS011;48624;49.812;8.562;2023-04-08T00:32:17;287.48;;;277.65;;
62332;SDS011;48624;49.812;8.562;2023-04-08T00:34:43;286.23;;;276.27;;
62332;SDS011;48624;49.812;8.562;2023-04-08T00:37:08;281.98;;;272.05;;
62332;SDS011;48624;49.812;8.562;2023-04-08T00:39:34;281.38;;;271.63;;
62332;SDS011;48624;49.812;8.562;2023-04-08T00:42:00;286.60;;;276.65;;
62332;SDS011;48624;49.812;8.562;2023-04-08T00:44:26;284.08;;;273.98;;
62332;SDS011;48624;49.812;8.562;2023-04-08T00:46:52;269.63;;;260.27;;
62332;SDS011;48624;49.812;8.562;2023-04-08T00:49:18;287.58;;;277.65;;
62332;SDS011;48624;49.812;8.562;2023-04-08T00:51:43;277.75;;;268.23;;
62332;SDS011;48624;49.812;8.562;2023-04-08T00:54:09;290.45;;;280.42;;
62332;SDS011;48624;49.812;8.562;2023-04-08T00:56:34;286.70;;;276.73;;
62332;SDS011;48624;49.812;8.562;2023-04-08T00:59:00;281.65;;;271.95;;
62332;SDS011;48624;49.812;8.562;2023-04-08T01:01:42;281.33;;;271.75;;
62332;SDS011;48624;49.812;8.562;2023-04-08T01:04:12;278.52;;;269.05;;
62332;SDS011;48624;49.812;8.562;2023-04-08T01:07:02;284.35;;;274.55;;
62332;SDS011;48624;49.812;8.562;2023-04-08T01:09:29;266.85;;;257.60;;
62332;SDS011;48624;49.812;8.562;2023-04-08T01:11:57;269.42;;;260.10;;
62332;SDS011;48624;49.812;8.562;2023-04-08T01:14:27;278.50;;;268.77;;
62332;SDS011;48624;49.812;8.562;2023-04-08T01:16:55;271.20;;;261.63;;
62332;SDS011;48624;49.812;8.562;2023-04-08T01:19:26;272.73;;;263.23;;
62332;SDS011;48624;49.812;8.562;2023-04-08T01:21:57;274.85;;;265.30;;
62332;SDS011;48624;49.812;8.562;2023-04-08T01:24:29;265.42;;;256.33;;
62332;SDS011;48624;49.812;8.562;2023-04-08T01:26:59;262.48;;;253.25;;
62332;SDS011;48624;49.812;8.562;2023-04-08T01:29:25;265.80;;;256.38;;
62332;SDS011;48624;49.812;8.562;2023-04-08T01:31:52;272.13;;;262.67;;
62332;SDS011;48624;49.812;8.562;2023-04-08T01:34:19;273.60;;;263.95;;
62332;SDS011;48624;49.812;8.562;2023-04-08T01:36:46;270.63;;;261.20;;
62332;SDS011;48624;49.812;8.562;2023-04-08T01:39:13;271.60;;;262.23;;
62332;SDS011;48624;49.812;8.562;2023-04-08T01:41:41;285.55;;;275.48;;
62332;SDS011;48624;49.812;8.562;2023-04-08T01:44:08;260.45;;;251.13;;
62332;SDS011;48624;49.812;8.562;2023-04-08T01:46:35;270.33;;;260.95;;
62332;SDS011;48624;49.812;8.562;2023-04-08T01:49:01;266.90;;;257.58;;
62332;SDS011;48624;49.812;8.562;2023-04-08T01:51:27;271.67;;;262.15;;
62332;SDS011;48624;49.812;8.562;2023-04-08T01:53:55;263.83;;;254.43;;
62332;SDS011;48624;49.812;8.562;2023-04-08T01:56:21;258.55;;;249.32;;
62332;SDS011;48624;49.812;8.562;2023-04-08T01:58:48;250.10;;;241.27;;
62332;SDS011;48624;49.812;8.562;2023-04-08T02:01:19;257.45;;;248.23;;
62332;SDS011;48624;49.812;8.562;2023-04-08T02:03:46;247.27;;;238.57;;
62332;SDS011;48624;49.812;8.562;2023-04-08T02:06:15;263.55;;;253.88;;
62332;SDS011;48624;49.812;8.562;2023-04-08T02:08:41;259.52;;;250.07;;
62332;SDS011;48624;49.812;8.562;2023-04-08T02:11:06;277.38;;;267.60;;
62332;SDS011;48624;49.812;8.562;2023-04-08T02:13:32;262.83;;;253.60;;
62332;SDS011;48624;49.812;8.562;2023-04-08T02:19:13;259.50;;;250.23;;
62332;SDS011;48624;49.812;8.562;2023-04-08T02:21:43;250.55;;;241.68;;
62332;SDS011;48624;49.812;8.562;2023-04-08T02:24:12;251.38;;;242.43;;
62332;SDS011;48624;49.812;8.562;2023-04-08T02:26:40;261.52;;;252.15;;
62332;SDS011;48624;49.812;8.562;2023-04-08T02:29:08;253.15;;;243.95;;
62332;SDS011;48624;49.812;8.562;2023-04-08T02:31:37;268.67;;;259.10;;
62332;SDS011;48624;49.812;8.562;2023-04-08T02:34:05;250.80;;;241.57;;
62332;SDS011;48624;49.812;8.562;2023-04-08T02:36:33;264.83;;;255.45;;
62332;SDS011;48624;49.812;8.562;2023-04-08T02:38:59;255.35;;;246.30;;
62332;SDS011;48624;49.812;8.562;2023-04-08T02:41:27;261.65;;;252.30;;
62332;SDS011;48624;49.812;8.562;2023-04-08T02:43:53;260.40;;;251.02;;
62332;SDS011;48624;49.812;8.562;2023-04-08T02:46:19;244.38;;;235.73;;
62332;SDS011;48624;49.812;8.562;2023-04-08T02:48:45;246.05;;;237.32;;
62332;SDS011;48624;49.812;8.562;2023-04-08T02:51:10;252.65;;;243.70;;
62332;SDS011;48624;49.812;8.562;2023-04-08T02:53:35;237.43;;;229.07;;
62332;SDS011;48624;49.812;8.562;2023-04-08T02:56:01;246.18;;;237.63;;
62332;SDS011;48624;49.812;8.562;2023-04-08T02:58:26;239.52;;;230.60;;
62332;SDS011;48624;49.812;8.562;2023-04-08T03:00:51;247.05;;;238.18;;
62332;SDS011;48624;49.812;8.562;2023-04-08T03:03:18;254.38;;;245.27;;
62332;SDS011;48624;49.812;8.562;2023-04-08T03:05:43;234.65;;;226.32;;
62332;SDS011;48624;49.812;8.562;2023-04-08T03:08:08;237.77;;;229.40;;
62332;SDS011;48624;49.812;8.562;2023-04-08T03:10:34;243.55;;;234.82;;
62332;SDS011;48624;49.812;8.562;2023-04-08T03:12:59;251.40;;;242.38;;
62332;SDS011;48624;49.812;8.562;2023-04-08T03:15:25;236.68;;;228.02;;
62332;SDS011;48624;49.812;8.562;2023-04-08T03:17:50;236.18;;;227.55;;
62332;SDS011;48624;49.812;8.562;2023-04-08T03:20:15;227.50;;;219.07;;
62332;SDS011;48624;49.812;8.562;2023-04-08T03:22:41;224.52;;;216.32;;
62332;SDS011;48624;49.812;8.562;2023-04-08T03:25:06;215.18;;;206.98;;
62332;SDS011;48624;49.812;8.562;2023-04-08T03:27:31;222.27;;;214.15;;
62332;SDS011;48624;49.812;8.562;2023-04-08T03:29:57;223.45;;;215.23;;
62332;SDS011;48624;49.812;8.562;2023-04-08T03:32:22;229.55;;;221.27;;
62332;SDS011;48624;49.812;8.562;2023-04-08T03:34:48;218.35;;;210.32;;
62332;SDS011;48624;49.812;8.562;2023-04-08T03:37:15;226.25;;;218.15;;
62332;SDS011;48624;49.812;8.562;2023-04-08T03:39:41;225.73;;;217.70;;
62332;SDS011;48624;49.812;8.562;2023-04-08T03:42:06;232.68;;;224.35;;
62332;SDS011;48624;49.812;8.562;2023-04-08T03:44:33;215.10;;;207.40;;
62332;SDS011;48624;49.812;8.562;2023-04-08T03:46:58;223.82;;;216.00;;
62332;SDS011;48624;49.812;8.562;2023-04-08T03:49:23;208.20;;;200.65;;
62332;SDS011;48624;49.812;8.562;2023-04-08T03:51:48;210.95;;;203.43;;
62332;SDS011;48624;49.812;8.562;2023-04-08T03:54:14;213.30;;;205.13;;
62332;SDS011;48624;49.812;8.562;2023-04-08T03:56:39;215.00;;;207.48;;
62332;SDS011;48624;49.812;8.562;2023-04-08T03:59:05;206.20;;;198.85;;
62332;SDS011;48624;49.812;8.562;2023-04-08T04:01:31;207.55;;;200.43;;
62332;SDS011;48624;49.812;8.562;2023-04-08T04:03:57;211.45;;;203.98;;
62332;SDS011;48624;49.812;8.562;2023-04-08T04:06:23;206.30;;;198.95;;
62332;SDS011;48624;49.812;8.562;2023-04-08T04:08:48;207.50;;;200.27;;
62332;SDS011;48624;49.812;8.562;2023-04-08T04:11:14;208.30;;;200.90;;
62332;SDS011;48624;49.812;8.562;2023-04-08T04:13:40;204.20;;;196.80;;
62332;SDS011;48624;49.812;8.562;2023-04-08T04:16:05;198.20;;;191.25;;
62332;SDS011;48624;49.812;8.562;2023-04-08T04:18:30;198.82;;;191.65;;
62332;SDS011;48624;49.812;8.562;2023-04-08T04:20:56;196.73;;;189.48;;
62332;SDS011;48624;49.812;8.562;2023-04-08T04:23:21;196.77;;;189.75;;
62332;SDS011;48624;49.812;8.562;2023-04-08T04:25:48;203.80;;;196.48;;
62332;SDS011;48624;49.812;8.562;2023-04-08T04:28:13;206.50;;;198.70;;
62332;SDS011;48624;49.812;8.562;2023-04-08T04:30:39;200.45;;;193.00;;
62332;SDS011;48624;49.812;8.562;2023-04-08T04:33:05;199.15;;;191.73;;
62332;SDS011;48624;49.812;8.562;2023-04-08T04:35:31;196.02;;;188.73;;
62332;SDS011;48624;49.812;8.562;2023-04-08T04:37:56;184.43;;;177.40;;
62332;SDS011;48624;49.812;8.562;2023-04-08T04:40:21;181.70;;;174.80;;
62332;SDS011;48624;49.812;8.562;2023-04-08T04:42:47;182.88;;;176.02;;
62332;SDS011;48624;49.812;8.562;2023-04-08T04:45:12;174.43;;;167.75;;
62332;SDS011;48624;49.812;8.562;2023-04-08T04:47:38;179.50;;;172.60;;
62332;SDS011;48624;49.812;8.562;2023-04-08T04:50:03;169.77;;;163.20;;
62332;SDS011;48624;49.812;8.562;2023-04-08T04:52:29;174.82;;;168.27;;
62332;SDS011;48624;49.812;8.562;2023-04-08T04:54:56;167.27;;;161.07;;
62332;SDS011;48624;49.812;8.562;2023-04-08T04:57:21;174.82;;;168.27;;
62332;SDS011;48624;49.812;8.562;2023-04-08T04:59:46;178.80;;;172.27;;
62332;SDS011;48624;49.812;8.562;2023-04-08T05:02:12;170.32;;;164.20;;
62332;SDS011;48624;49.812;8.562;2023-04-08T05:04:37;170.98;;;164.75;;
62332;SDS011;48624;49.812;8.562;2023-04-08T05:07:03;173.73;;;167.32;;
62332;SDS011;48624;49.812;8.562;2023-04-08T05:09:30;193.77;;;186.60;;
62332;SDS011;48624;49.812;8.562;2023-04-08T05:11:55;168.23;;;162.18;;
62332;SDS011;48624;49.812;8.562;2023-04-08T05:14:21;172.38;;;165.88;;
62332;SDS011;48624;49.812;8.562;2023-04-08T05:16:46;163.07;;;156.95;;
62332;SDS011;48624;49.812;8.562;2023-04-08T05:19:11;163.48;;;157.30;;
62332;SDS011;48624;49.812;8.562;2023-04-08T05:21:36;161.02;;;154.63;;
62332;SDS011;48624;49.812;8.562;2023-04-08T05:24:02;161.63;;;155.73;;
62332;SDS011;48624;49.812;8.562;2023-04-08T05:26:27;154.10;;;148.27;;
62332;SDS011;48624;49.812;8.562;2023-04-08T05:28:52;163.90;;;157.40;;
62332;SDS011;48624;49.812;8.562;2023-04-08T05:31:18;155.60;;;149.60;;
62332;SDS011;48624;49.812;8.562;2023-04-08T05:33:44;153.80;;;147.52;;
62332;SDS011;48624;49.812;8.562;2023-04-08T05:36:10;159.30;;;152.60;;
62332;SDS011;48624;49.812;8.562;2023-04-08T05:38:36;167.38;;;160.68;;
62332;SDS011;48624;49.812;8.562;2023-04-08T05:41:03;163.20;;;156.75;;
62332;SDS011;48624;49.812;8.562;2023-04-08T05:43:28;157.13;;;150.88;;
62332;SDS011;48624;49.812;8.562;2023-04-08T05:45:54;152.40;;;146.05;;
62332;SDS011;48624;49.812;8.562;2023-04-08T05:48:19;163.07;;;156.25;;
62332;SDS011;48624;49.812;8.562;2023-04-08T05:50:44;165.95;;;158.55;;
62332;SDS011;48624;49.812;8.562;2023-04-08T05:53:12;158.05;;;151.00;;
62332;SDS011;48624;49.812;8.562;2023-04-08T05:55:37;156.95;;;150.05;;
62332;SDS011;48624;49.812;8.562;2023-04-08T05:58:02;164.05;;;156.93;;
62332;SDS011;48624;49.812;8.562;2023-04-08T06:00:28;156.98;;;150.38;;
62332;SDS011;48624;49.812;8.562;2023-04-08T06:02:53;150.63;;;144.02;;
62332;SDS011;48624;49.812;8.562;2023-04-08T06:05:18;165.30;;;158.13;;
62332;SDS011;48624;49.812;8.562;2023-04-08T06:07:44;157.57;;;150.95;;
62332;SDS011;48624;49.812;8.562;2023-04-08T06:10:09;165.57;;;158.55;;
62332;SDS011;48624;49.812;8.562;2023-04-08T06:12:35;157.18;;;150.50;;
62332;SDS011;48624;49.812;8.562;2023-04-08T06:15:02;168.60;;;161.43;;
62332;SDS011;48624;49.812;8.562;2023-04-08T06:17:29;159.70;;;153.07;;
62332;SDS011;48624;49.812;8.562;2023-04-08T06:19:54;162.45;;;155.65;;
62332;SDS011;48624;49.812;8.562;2023-04-08T06:22:20;161.70;;;154.60;;
62332;SDS011;48624;49.812;8.562;2023-04-08T06:24:48;158.63;;;151.93;;
62332;SDS011;48624;49.812;8.562;2023-04-08T06:27:13;189.38;;;181.60;;
62332;SDS011;48624;49.812;8.562;2023-04-08T06:29:39;166.43;;;159.30;;
62332;SDS011;48624;49.812;8.562;2023-04-08T06:32:05;152.02;;;145.07;;
62332;SDS011;48624;49.812;8.562;2023-04-08T06:34:31;161.35;;;153.98;;
62332;SDS011;48624;49.812;8.562;2023-04-08T06:36:56;165.85;;;158.45;;
62332;SDS011;48624;49.812;8.562;2023-04-08T06:39:22;158.18;;;150.88;;
62332;SDS011;48624;49.812;8.562;2023-04-08T06:41:48;157.73;;;150.48;;
62332;SDS011;48624;49.812;8.562;2023-04-08T06:44:13;163.07;;;156.00;;
62332;SDS011;48624;49.812;8.562;2023-04-08T06:46:38;158.95;;;151.77;;
62332;SDS011;48624;49.812;8.562;2023-04-08T06:49:04;161.80;;;154.77;;
62332;SDS011;48624;49.812;8.562;2023-04-08T06:51:31;163.45;;;156.38;;
62332;SDS011;48624;49.812;8.562;2023-04-08T06:53:56;164.63;;;157.55;;
62332;SDS011;48624;49.812;8.562;2023-04-08T06:56:21;158.55;;;151.70;;
62332;SDS011;48624;49.812;8.562;2023-04-08T06:58:47;171.30;;;164.07;;
62332;SDS011;48624;49.812;8.562;2023-04-08T07:01:12;165.23;;;158.15;;
62332;SDS011;48624;49.812;8.562;2023-04-08T07:03:37;161.15;;;153.80;;
62332;SDS011;48624;49.812;8.562;2023-04-08T07:06:03;162.48;;;155.65;;
62332;SDS011;48624;49.812;8.562;2023-04-08T07:08:28;174.13;;;166.50;;
62332;SDS011;48624;49.812;8.562;2023-04-08T07:10:53;170.02;;;162.95;;
62332;SDS011;48624;49.812;8.562;2023-04-08T07:13:19;175.48;;;167.73;;
62332;SDS011;48624;49.812;8.562;2023-04-08T07:15:44;181.75;;;174.27;;
62332;SDS011;48624;49.812;8.562;2023-04-08T07:18:09;175.48;;;167.20;;
62332;SDS011;48624;49.812;8.562;2023-04-08T07:20:36;173.30;;;166.10;;
62332;SDS011;48624;49.812;8.562;2023-04-08T07:23:03;178.00;;;170.40;;
62332;SDS011;48624;49.812;8.562;2023-04-08T07:25:29;185.55;;;178.00;;
62332;SDS011;48624;49.812;8.562;2023-04-08T07:27:54;218.65;;;210.13;;
62332;SDS011;48624;49.812;8.562;2023-04-08T07:30:20;215.75;;;207.15;;
62332;SDS011;48624;49.812;8.562;2023-04-08T07:32:46;231.38;;;222.38;;
62332;SDS011;48624;49.812;8.562;2023-04-08T07:35:11;272.83;;;262.48;;
62332;SDS011;48624;49.812;8.562;2023-04-08T07:37:36;290.85;;;279.60;;
62332;SDS011;48624;49.812;8.562;2023-04-08T07:40:02;259.85;;;250.35;;
62332;SDS011;48624;49.812;8.562;2023-04-08T07:42:27;258.15;;;248.60;;
62332;SDS011;48624;49.812;8.562;2023-04-08T07:44:53;256.17;;;246.80;;
62332;SDS011;48624;49.812;8.562;2023-04-08T07:47:18;265.60;;;255.93;;
62332;SDS011;48624;49.812;8.562;2023-04-08T07:49:45;262.35;;;252.63;;
62332;SDS011;48624;49.812;8.562;2023-04-08T07:52:12;256.35;;;247.07;;
62332;SDS011;48624;49.812;8.562;2023-04-08T07:54:37;258.77;;;249.23;;
62332;SDS011;48624;49.812;8.562;2023-04-08T07:57:03;268.70;;;258.77;;
62332;SDS011;48624;49.812;8.562;2023-04-08T07:59:28;263.92;;;254.02;;
62332;SDS011;48624;49.812;8.562;2023-04-08T08:01:55;256.40;;;247.10;;
62332;SDS011;48624;49.812;8.562;2023-04-08T08:04:20;260.50;;;250.95;;
62332;SDS011;48624;49.812;8.562;2023-04-08T08:06:45;276.92;;;266.58;;
62332;SDS011;48624;49.812;8.562;2023-04-08T08:09:11;221.02;;;213.02;;
62332;SDS011;48624;49.812;8.562;2023-04-08T08:11:37;198.35;;;191.15;;
62332;SDS011;48624;49.812;8.562;2023-04-08T08:14:02;217.57;;;209.40;;
62332;SDS011;48624;49.812;8.562;2023-04-08T08:16:28;252.50;;;243.50;;
62332;SDS011;48624;49.812;8.562;2023-04-08T08:18:55;236.75;;;227.98;;
62332;SDS011;48624;49.812;8.562;2023-04-08T08:21:22;239.40;;;230.75;;
62332;SDS011;48624;49.812;8.562;2023-04-08T08:23:47;216.57;;;208.68;;
62332;SDS011;48624;49.812;8.562;2023-04-08T08:26:13;212.23;;;204.43;;
62332;SDS011;48624;49.812;8.562;2023-04-08T08:28:38;228.68;;;220.35;;
62332;SDS011;48624;49.812;8.562;2023-04-08T08:31:04;216.65;;;208.93;;
62332;SDS011;48624;49.812;8.562;2023-04-08T08:33:30;242.65;;;233.98;;
62332;SDS011;48624;49.812;8.562;2023-04-08T08:35:56;238.30;;;229.45;;
62332;SDS011;48624;49.812;8.562;2023-04-08T08:38:22;240.60;;;232.23;;
62332;SDS011;48624;49.812;8.562;2023-04-08T08:40:52;232.27;;;223.90;;
62332;SDS011;48624;49.812;8.562;2023-04-08T08:43:20;216.75;;;208.63;;
62332;SDS011;48624;49.812;8.562;2023-04-08T08:45:46;218.40;;;210.38;;
62332;SDS011;48624;49.812;8.562;2023-04-08T08:48:11;255.52;;;246.13;;
62332;SDS011;48624;49.812;8.562;2023-04-08T08:50:37;233.05;;;224.43;;
62332;SDS011;48624;49.812;8.562;2023-04-08T08:53:02;220.00;;;211.93;;
62332;SDS011;48624;49.812;8.562;2023-04-08T08:55:29;234.23;;;225.73;;
62332;SDS011;48624;49.812;8.562;2023-04-08T08:58:01;125.95;;;121.03;;
62332;SDS011;48624;49.812;8.562;2023-04-08T09:00:33;129.73;;;124.45;;
62332;SDS011;48624;49.812;8.562;2023-04-08T09:03:12;128.75;;;123.60;;
62332;SDS011;48624;49.812;8.562;2023-04-08T09:08:36;108.68;;;104.47;;
62332;SDS011;48624;49.812;8.562;2023-04-08T09:13:36;117.20;;;112.72;;
62332;SDS011;48624;49.812;8.562;2023-04-08T09:16:03;165.77;;;159.40;;
62332;SDS011;48624;49.812;8.562;2023-04-08T09:18:30;138.43;;;133.30;;
62332;SDS011;48624;49.812;8.562;2023-04-08T09:20:58;96.28;;;92.47;;
62332;SDS011;48624;49.812;8.562;2023-04-08T09:23:34;112.95;;;108.55;;
62332;SDS011;48624;49.812;8.562;2023-04-08T09:26:09;110.88;;;106.25;;
62332;SDS011;48624;49.812;8.562;2023-04-08T09:28:36;122.63;;;117.82;;
62332;SDS011;48624;49.812;8.562;2023-04-08T09:31:20;79.22;;;76.05;;
62332;SDS011;48624;49.812;8.562;2023-04-08T09:33:48;123.75;;;119.05;;
62332;SDS011;48624;49.812;8.562;2023-04-08T09:36:15;159.68;;;153.63;;
62332;SDS011;48624;49.812;8.562;2023-04-08T09:38:41;106.57;;;102.07;;
62332;SDS011;48624;49.812;8.562;2023-04-08T09:41:12;128.43;;;123.47;;
62332;SDS011;48624;49.812;8.562;2023-04-08T09:43:46;137.68;;;132.15;;
62332;SDS011;48624;49.812;8.562;2023-04-08T09:46:14;163.23;;;157.23;;
62332;SDS011;48624;49.812;8.562;2023-04-08T09:48:45;147.65;;;142.10;;
62332;SDS011;48624;49.812;8.562;2023-04-08T09:51:15;159.48;;;153.40;;
62332;SDS011;48624;49.812;8.562;2023-04-08T09:53:45;143.77;;;138.13;;
62332;SDS011;48624;49.812;8.562;2023-04-08T09:56:12;179.25;;;172.65;;
62332;SDS011;48624;49.812;8.562;2023-04-08T09:58:58;158.63;;;152.75;;
62332;SDS011;48624;49.812;8.562;2023-04-08T10:01:31;108.68;;;104.20;;
62332;SDS011;48624;49.812;8.562;2023-04-08T10:04:01;173.75;;;167.27;;
62332;SDS011;48624;49.812;8.562;2023-04-08T10:06:30;142.65;;;137.07;;
62332;SDS011;48624;49.812;8.562;2023-04-08T10:08:58;107.00;;;102.75;;
62332;SDS011;48624;49.812;8.562;2023-04-08T10:11:26;127.38;;;122.68;;
62332;SDS011;48624;49.812;8.562;2023-04-08T10:13:51;102.75;;;98.70;;
62332;SDS011;48624;49.812;8.562;2023-04-08T10:16:18;111.80;;;107.28;;
62332;SDS011;48624;49.812;8.562;2023-04-08T10:18:46;86.30;;;82.68;;
62332;SDS011;48624;49.812;8.562;2023-04-08T10:24:18;45.90;;;43.38;;
62332;SDS011;48624;49.812;8.562;2023-04-08T10:26:48;107.63;;;103.43;;
62332;SDS011;48624;49.812;8.562;2023-04-08T10:31:41;47.10;;;45.03;;
62332;SDS011;48624;49.812;8.562;2023-04-08T10:34:20;48.67;;;46.47;;
62332;SDS011;48624;49.812;8.562;2023-04-08T10:36:48;16.48;;;15.38;;
62332;SDS011;48624;49.812;8.562;2023-04-08T10:39:14;11.80;;;10.80;;
62332;SDS011;48624;49.812;8.562;2023-04-08T10:41:47;9.75;;;6.78;;
62332;SDS011;48624;49.812;8.562;2023-04-08T10:44:21;9.00;;;6.88;;
62332;SDS011;48624;49.812;8.562;2023-04-08T10:46:48;7.63;;;6.47;;
62332;SDS011;48624;49.812;8.562;2023-04-08T10:49:16;7.80;;;6.18;;
62332;SDS011;48624;49.812;8.562;2023-04-08T10:51:44;8.27;;;5.28;;
62332;SDS011;48624;49.812;8.562;2023-04-08T10:54:12;7.75;;;6.30;;
62332;SDS011;48624;49.812;8.562;2023-04-08T10:56:43;8.77;;;6.68;;
62332;SDS011;48624;49.812;8.562;2023-04-08T10:59:13;6.60;;;5.18;;
62332;SDS011;48624;49.812;8.562;2023-04-08T11:01:41;6.93;;;5.70;;
62332;SDS011;48624;49.812;8.562;2023-04-08T11:04:16;6.32;;;5.05;;
62332;SDS011;48624;49.812;8.562;2023-04-08T11:06:44;6.03;;;4.93;;
62332;SDS011;48624;49.812;8.562;2023-04-08T11:09:12;8.68;;;5.93;;
62332;SDS011;48624;49.812;8.562;2023-04-08T11:11:44;8.15;;;5.70;;
62332;SDS011;48624;49.812;8.562;2023-04-08T11:14:10;7.43;;;5.22;;
62332;SDS011;48624;49.812;8.562;2023-04-08T11:16:36;8.95;;;6.47;;
62332;SDS011;48624;49.812;8.562;2023-04-08T11:19:03;8.57;;;5.63;;
62332;SDS011;48624;49.812;8.562;2023-04-08T11:21:36;9.63;;;5.97;;
62332;SDS011;48624;49.812;8.562;2023-04-08T11:24:06;5.97;;;4.90;;
62332;SDS011;48624;49.812;8.562;2023-04-08T11:26:34;7.70;;;6.90;;
62332;SDS011;48624;49.812;8.562;2023-04-08T11:29:01;7.95;;;5.85;;
62332;SDS011;48624;49.812;8.562;2023-04-08T11:31:27;6.60;;;5.07;;
62332;SDS011;48624;49.812;8.562;2023-04-08T11:33:53;7.68;;;6.38;;
62332;SDS011;48624;49.812;8.562;2023-04-08T11:36:22;7.70;;;5.70;;
62332;SDS011;48624;49.812;8.562;2023-04-08T11:38:48;9.43;;;6.50;;
62332;SDS011;48624;49.812;8.562;2023-04-08T11:41:13;8.35;;;6.05;;
62332;SDS011;48624;49.812;8.562;2023-04-08T11:43:49;10.77;;;9.68;;
62332;SDS011;48624;49.812;8.562;2023-04-08T11:46:17;9.77;;;8.88;;
62332;SDS011;48624;49.812;8.562;2023-04-08T11:51:29;17.98;;;16.90;;
62332;SDS011;48624;49.812;8.562;2023-04-08T11:53:54;6.70;;;5.72;;
62332;SDS011;48624;49.812;8.562;2023-04-08T11:56:21;7.22;;;6.60;;
62332;SDS011;48624;49.812;8.562;2023-04-08T11:58:50;8.68;;;7.85;;
62332;SDS011;48624;49.812;8.562;2023-04-08T12:01:15;9.40;;;6.82;;
62332;SDS011;48624;49.812;8.562;2023-04-08T12:03:54;17.27;;;15.98;;
62332;SDS011;48624;49.812;8.562;2023-04-08T12:06:23;16.90;;;15.70;;
62332;SDS011;48624;49.812;8.562;2023-04-08T12:08:49;10.95;;;10.13;;
62332;SDS011;48624;49.812;8.562;2023-04-08T12:11:14;8.45;;;7.68;;
62332;SDS011;48624;49.812;8.562;2023-04-08T12:13:40;8.23;;;7.38;;
62332;SDS011;48624;49.812;8.562;2023-04-08T12:16:06;9.95;;;8.55;;
62332;SDS011;48624;49.812;8.562;2023-04-08T12:18:31;8.65;;;5.90;;
62332;SDS011;48624;49.812;8.562;2023-04-08T12:20:58;7.47;;;6.32;;
62332;SDS011;48624;49.812;8.562;2023-04-08T12:23:24;7.05;;;6.18;;
62332;SDS011;48624;49.812;8.562;2023-04-08T12:25:50;6.07;;;4.95;;
62332;SDS011;48624;49.812;8.562;2023-04-08T12:28:15;6.40;;;4.95;;
62332;SDS011;48624;49.812;8.562;2023-04-08T12:30:40;6.45;;;5.22;;
62332;SDS011;48624;49.812;8.562;2023-04-08T12:33:06;7.50;;;5.05;;
62332;SDS011;48624;49.812;8.562;2023-04-08T12:35:31;6.55;;;4.85;;
62332;SDS011;48624;49.812;8.562;2023-04-08T12:37:56;8.50;;;5.45;;
62332;SDS011;48624;49.812;8.562;2023-04-08T12:40:21;6.03;;;4.85;;
62332;SDS011;48624;49.812;8.562;2023-04-08T12:42:47;5.80;;;4.38;;
62332;SDS011;48624;49.812;8.562;2023-04-08T12:45:12;4.68;;;3.90;;
62332;SDS011;48624;49.812;8.562;2023-04-08T12:47:39;6.05;;;4.60;;
62332;SDS011;48624;49.812;8.562;2023-04-08T12:50:05;6.80;;;4.53;;
62332;SDS011;48624;49.812;8.562;2023-04-08T12:52:30;6.57;;;4.82;;
62332;SDS011;48624;49.812;8.562;2023-04-08T12:54:57;7.93;;;4.88;;
62332;SDS011;48624;49.812;8.562;2023-04-08T12:57:22;6.18;;;4.90;;
62332;SDS011;48624;49.812;8.562;2023-04-08T12:59:48;5.88;;;4.43;;
62332;SDS011;48624;49.812;8.562;2023-04-08T13:02:16;7.15;;;4.38;;
62332;SDS011;48624;49.812;8.562;2023-04-08T13:04:43;5.03;;;3.58;;
62332;SDS011;48624;49.812;8.562;2023-04-08T13:07:08;6.47;;;4.88;;
62332;SDS011;48624;49.812;8.562;2023-04-08T13:09:34;4.85;;;3.70;;
62332;SDS011;48624;49.812;8.562;2023-04-08T13:12:02;5.15;;;3.85;;
62332;SDS011;48624;49.812;8.562;2023-04-08T13:14:28;5.88;;;3.65;;
62332;SDS011;48624;49.812;8.562;2023-04-08T13:16:54;5.00;;;3.90;;
62332;SDS011;48624;49.812;8.562;2023-04-08T13:19:19;5.60;;;4.05;;
62332;SDS011;48624;49.812;8.562;2023-04-08T13:21:45;6.82;;;4.10;;
62332;SDS011;48624;49.812;8.562;2023-04-08T13:24:10;5.50;;;3.70;;
62332;SDS011;48624;49.812;8.562;2023-04-08T13:26:36;5.28;;;4.07;;
62332;SDS011;48624;49.812;8.562;2023-04-08T13:29:02;7.28;;;4.97;;
62332;SDS011;48624;49.812;8.562;2023-04-08T13:31:27;6.85;;;4.53;;
62332;SDS011;48624;49.812;8.562;2023-04-08T13:33:53;7.35;;;4.32;;
62332;SDS011;48624;49.812;8.562;2023-04-08T13:36:19;6.90;;;4.07;;
62332;SDS011;48624;49.812;8.562;2023-04-08T13:38:44;5.40;;;4.53;;
62332;SDS011;48624;49.812;8.562;2023-04-08T13:41:10;4.43;;;3.47;;
62332;SDS011;48624;49.812;8.562;2023-04-08T13:43:38;5.40;;;4.20;;
62332;SDS011;48624;49.812;8.562;2023-04-08T13:46:04;4.85;;;3.97;;
62332;SDS011;48624;49.812;8.562;2023-04-08T13:48:29;4.88;;;3.33;;
62332;SDS011;48624;49.812;8.562;2023-04-08T13:50:54;4.55;;;3.20;;
62332;SDS011;48624;49.812;8.562;2023-04-08T13:53:20;5.15;;;3.53;;
62332;SDS011;48624;49.812;8.562;2023-04-08T13:55:45;5.47;;;3.38;;
62332;SDS011;48624;49.812;8.562;2023-04-08T13:58:10;6.80;;;3.28;;
62332;SDS011;48624;49.812;8.562;2023-04-08T14:00:36;5.40;;;3.22;;
62332;SDS011;48624;49.812;8.562;2023-04-08T14:03:02;3.88;;;2.92;;
62332;SDS011;48624;49.812;8.562;2023-04-08T14:05:27;3.40;;;2.80;;
62332;SDS011;48624;49.812;8.562;2023-04-08T14:07:53;3.88;;;3.40;;
62332;SDS011;48624;49.812;8.562;2023-04-08T14:10:18;5.60;;;3.67;;
62332;SDS011;48624;49.812;8.562;2023-04-08T14:12:43;5.90;;;4.22;;
62332;SDS011;48624;49.812;8.562;2023-04-08T14:15:10;5.63;;;4.15;;
62332;SDS011;48624;49.812;8.562;2023-04-08T14:17:36;6.93;;;4.32;;
62332;SDS011;48624;49.812;8.562;2023-04-08T14:20:02;5.35;;;4.20;;
62332;SDS011;48624;49.812;8.562;2023-04-08T14:22:30;7.05;;;4.55;;